N9360C KDPA-

Flight info

Callsign N9360C
Flight time N/A
Altitude
Route
Aircraft P28A/L-DOV/C

Departure

Time 2026-04-26 20:25
Airport Dupage Airport (KDPA)

Arrival

Time N/A
Airport -
Time Latitude Longitude Altitude Speed Heading
2026-04-26 20:22 41.91524 -88.25731 758 ft 0 kts 176°
2026-04-26 20:22 41.91518 -88.25732 754 ft 5 kts 194°
2026-04-26 20:23 41.91497 -88.25791 757 ft 10 kts 260°
2026-04-26 20:23 41.91462 -88.25825 762 ft 4 kts 187°
2026-04-26 20:23 41.91430 -88.25830 762 ft 0 kts 185°
2026-04-26 20:24 41.91382 -88.25837 759 ft 12 kts 187°
2026-04-26 20:24 41.91341 -88.25742 758 ft 23 kts 94°
2026-04-26 20:24 41.91311 -88.25330 776 ft 62 kts 97°
2026-04-26 20:24 41.91241 -88.24697 926 ft 71 kts 98°
2026-04-26 20:25 41.91167 -88.24065 1212 ft 65 kts 96°
2026-04-26 20:25 41.91152 -88.23677 1419 ft 61 kts 71°
2026-04-26 20:25 41.91722 -88.23481 1691 ft 87 kts 343°
2026-04-26 20:25 41.92232 -88.23997 1874 ft 97 kts 326°
2026-04-26 20:26 41.92739 -88.24589 2033 ft 98 kts 323°
2026-04-26 20:26 41.93236 -88.25242 2170 ft 109 kts 317°
2026-04-26 20:26 41.93787 -88.25965 2240 ft 113 kts 323°
2026-04-26 20:26 41.94419 -88.26566 2298 ft 112 kts 331°
2026-04-26 20:27 41.95042 -88.27195 2356 ft 111 kts 330°
2026-04-26 20:27 41.95703 -88.27710 2360 ft 112 kts 336°
2026-04-26 20:27 41.96346 -88.28282 2416 ft 112 kts 330°
2026-04-26 20:27 41.96991 -88.28900 2481 ft 115 kts 328°
2026-04-26 20:28 41.97623 -88.29546 2585 ft 115 kts 324°
2026-04-26 20:28 41.98259 -88.30213 2658 ft 118 kts 325°
2026-04-26 20:28 41.98910 -88.30940 2692 ft 123 kts 320°
2026-04-26 20:28 41.99508 -88.31773 2779 ft 122 kts 314°
2026-04-26 20:29 42.00130 -88.32586 2839 ft 126 kts 322°
2026-04-26 20:29 42.00805 -88.33276 2992 ft 120 kts 326°
2026-04-26 20:29 42.01508 -88.33928 3069 ft 123 kts 326°
2026-04-26 20:29 42.02201 -88.34614 3110 ft 123 kts 318°
2026-04-26 20:30 42.02849 -88.35363 3146 ft 124 kts 319°
2026-04-26 20:30 42.03557 -88.36075 3145 ft 127 kts 324°
2026-04-26 20:30 42.04292 -88.36708 3362 ft 121 kts 328°
2026-04-26 20:30 42.05018 -88.37257 3455 ft 118 kts 327°
2026-04-26 20:31 42.05728 -88.37806 3565 ft 117 kts 331°
2026-04-26 20:31 42.06466 -88.38336 3518 ft 128 kts 333°
2026-04-26 20:31 42.07259 -88.38910 3542 ft 128 kts 329°
2026-04-26 20:31 42.08030 -88.39487 3589 ft 125 kts 330°
2026-04-26 20:32 42.08799 -88.40051 3602 ft 128 kts 333°
2026-04-26 20:32 42.09591 -88.40603 3625 ft 129 kts 331°
2026-04-26 20:32 42.10380 -88.41239 3591 ft 133 kts 325°
2026-04-26 20:32 42.11124 -88.41923 3674 ft 128 kts 324°
2026-04-26 20:33 42.11855 -88.42617 3716 ft 126 kts 319°
2026-04-26 20:33 42.12448 -88.43470 3701 ft 129 kts 317°
2026-04-26 20:33 42.13176 -88.44223 3677 ft 133 kts 322°
2026-04-26 20:33 42.13906 -88.44956 3698 ft 131 kts 321°
2026-04-26 20:34 42.14610 -88.45722 3776 ft 128 kts 321°
2026-04-26 20:34 42.15369 -88.46333 3814 ft 128 kts 328°
2026-04-26 20:34 42.16135 -88.46931 3856 ft 127 kts 330°
2026-04-26 20:34 42.16898 -88.47549 3875 ft 127 kts 327°
2026-04-26 20:35 42.17650 -88.48204 3889 ft 129 kts 326°
2026-04-26 20:35 42.18405 -88.48881 3893 ft 132 kts 326°
2026-04-26 20:35 42.19158 -88.49553 3939 ft 129 kts 325°
2026-04-26 20:35 42.19919 -88.50234 3947 ft 131 kts 322°
2026-04-26 20:36 42.20664 -88.50951 3961 ft 134 kts 321°
2026-04-26 20:36 42.21422 -88.51685 3962 ft 133 kts 322°
2026-04-26 20:36 42.22174 -88.52406 3962 ft 133 kts 323°
2026-04-26 20:36 42.22941 -88.53141 4059 ft 134 kts 321°
2026-04-26 20:37 42.23667 -88.53844 4221 ft 125 kts 326°
2026-04-26 20:37 42.24378 -88.54497 4234 ft 127 kts 326°
2026-04-26 20:37 42.25143 -88.55128 4281 ft 129 kts 327°
2026-04-26 20:37 42.25926 -88.55778 4234 ft 133 kts 326°
2026-04-26 20:38 42.26702 -88.56480 4209 ft 133 kts 325°
2026-04-26 20:38 42.27489 -88.57162 4161 ft 135 kts 325°
2026-04-26 20:38 42.28272 -88.57857 4169 ft 132 kts 323°
2026-04-26 20:38 42.29035 -88.58553 4181 ft 132 kts 323°
2026-04-26 20:39 42.29789 -88.59252 4194 ft 132 kts 324°
2026-04-26 20:39 42.30343 -88.59640 4196 ft 135 kts 333°
2026-04-26 20:39 42.31375 -88.60425 4305 ft 124 kts 324°
2026-04-26 20:39 42.32095 -88.61047 4343 ft 125 kts 323°
2026-04-26 20:40 42.32866 -88.61769 4084 ft 147 kts 323°
2026-04-26 20:40 42.33693 -88.62537 4079 ft 138 kts 323°
2026-04-26 20:40 42.34443 -88.63257 4153 ft 130 kts 323°
2026-04-26 20:40 42.35190 -88.63965 4119 ft 132 kts 323°
2026-04-26 20:41 42.35940 -88.64697 4144 ft 132 kts 322°
2026-04-26 20:41 42.36673 -88.65423 4143 ft 133 kts 320°
2026-04-26 20:41 42.37392 -88.66217 4152 ft 130 kts 317°
2026-04-26 20:41 42.38042 -88.66985 4245 ft 124 kts 316°
2026-04-26 20:42 42.38723 -88.67731 4380 ft 127 kts 320°
2026-04-26 20:42 42.39471 -88.68442 4269 ft 137 kts 323°
2026-04-26 20:42 42.40264 -88.69194 4224 ft 136 kts 323°
2026-04-26 20:42 42.41037 -88.69889 4262 ft 132 kts 326°
2026-04-26 20:43 42.41848 -88.70532 4212 ft 136 kts 330°
2026-04-26 20:43 42.42659 -88.71194 4194 ft 136 kts 321°
2026-04-26 20:43 42.43392 -88.71965 4229 ft 131 kts 322°
2026-04-26 20:43 42.44161 -88.72640 4233 ft 132 kts 324°
2026-04-26 20:44 42.44952 -88.73299 4207 ft 135 kts 328°
2026-04-26 20:44 42.45755 -88.73975 4225 ft 134 kts 326°
2026-04-26 20:44 42.46533 -88.74638 4294 ft 131 kts 328°
2026-04-26 20:44 42.47330 -88.75239 4290 ft 132 kts 330°
2026-04-26 20:45 42.48135 -88.75879 4212 ft 136 kts 328°
2026-04-26 20:45 42.48676 -88.76318 4235 ft 136 kts 328°
2026-04-26 20:45 42.49511 -88.76909 4212 ft 139 kts 340°
2026-04-26 20:45 42.50381 -88.77420 4249 ft 132 kts 332°
2026-04-26 20:46 42.51163 -88.78071 4213 ft 136 kts 325°
2026-04-26 20:46 42.51920 -88.78805 4218 ft 135 kts 317°
2026-04-26 20:46 42.52676 -88.79559 4194 ft 135 kts 330°
2026-04-26 20:46 42.53458 -88.80170 4284 ft 128 kts 324°
2026-04-26 20:47 42.54213 -88.80840 4298 ft 133 kts 325°
2026-04-26 20:47 42.54718 -88.81278 4365 ft 127 kts 326°
2026-04-26 20:47 42.55748 -88.82056 4486 ft 131 kts 329°
2026-04-26 20:47 42.56560 -88.82659 4506 ft 137 kts 328°
2026-04-26 20:48 42.57394 -88.83348 4409 ft 142 kts 326°
2026-04-26 20:48 42.58212 -88.84074 4354 ft 141 kts 324°
2026-04-26 20:48 42.59019 -88.84814 4285 ft 138 kts 323°
2026-04-26 20:48 42.59813 -88.85566 4158 ft 144 kts 324°
2026-04-26 20:49 42.60614 -88.86332 4157 ft 136 kts 321°
2026-04-26 20:49 42.61401 -88.87112 4054 ft 144 kts 322°
2026-04-26 20:49 42.62199 -88.87909 4087 ft 141 kts 323°
2026-04-26 20:49 42.62981 -88.88669 4099 ft 136 kts 323°
2026-04-26 20:50 42.63765 -88.89378 4053 ft 135 kts 325°
2026-04-26 20:50 42.64561 -88.90087 3992 ft 137 kts 325°
2026-04-26 20:50 42.65376 -88.90781 3939 ft 139 kts 327°
2026-04-26 20:50 42.66182 -88.91445 3972 ft 135 kts 328°
2026-04-26 20:51 42.66954 -88.92130 4025 ft 131 kts 326°
2026-04-26 20:51 42.67718 -88.92755 4061 ft 129 kts 326°
2026-04-26 20:51 42.68481 -88.93398 4070 ft 129 kts 328°
2026-04-26 20:51 42.69269 -88.94049 4091 ft 133 kts 328°
2026-04-26 20:52 42.70053 -88.94696 4112 ft 132 kts 329°
2026-04-26 20:52 42.70840 -88.95330 4164 ft 132 kts 329°
2026-04-26 20:52 42.71624 -88.95950 4202 ft 131 kts 327°
2026-04-26 20:52 42.72419 -88.96556 4216 ft 132 kts 333°
2026-04-26 20:53 42.73191 -88.97218 4277 ft 130 kts 327°
2026-04-26 20:53 42.73961 -88.97859 4335 ft 130 kts 326°
2026-04-26 20:53 42.74711 -88.98527 4444 ft 127 kts 325°
2026-04-26 20:53 42.75451 -88.99193 4495 ft 128 kts 324°
2026-04-26 20:54 42.76224 -88.99871 4550 ft 133 kts 327°
2026-04-26 20:54 42.76990 -89.00568 4600 ft 135 kts 322°
2026-04-26 20:54 42.77768 -89.01311 4567 ft 136 kts 323°
2026-04-26 20:54 42.78549 -89.02035 4560 ft 135 kts 325°
2026-04-26 20:55 42.79308 -89.02753 4636 ft 132 kts 324°
2026-04-26 20:55 42.80087 -89.03451 4580 ft 135 kts 326°
2026-04-26 20:55 42.80879 -89.04124 4543 ft 135 kts 328°
2026-04-26 20:55 42.81687 -89.04772 4564 ft 131 kts 328°
2026-04-26 20:56 42.82474 -89.05427 4537 ft 134 kts 328°
2026-04-26 20:56 42.83254 -89.06058 4533 ft 131 kts 326°
2026-04-26 20:56 42.84038 -89.06720 4503 ft 135 kts 329°
2026-04-26 20:56 42.84821 -89.07335 4650 ft 127 kts 326°
2026-04-26 20:57 42.85645 -89.07925 4557 ft 134 kts 330°
2026-04-26 20:57 42.86425 -89.08545 4652 ft 129 kts 326°
2026-04-26 20:57 42.87113 -89.09308 4666 ft 129 kts 311°
2026-04-26 20:57 42.87773 -89.10194 4585 ft 137 kts 309°
2026-04-26 20:58 42.88432 -89.11132 4540 ft 136 kts 307°
2026-04-26 20:58 42.89076 -89.12086 4472 ft 136 kts 309°
2026-04-26 20:58 42.89725 -89.13024 4425 ft 135 kts 313°
2026-04-26 20:58 42.90410 -89.13893 4381 ft 136 kts 314°
2026-04-26 20:59 42.91064 -89.14852 4354 ft 136 kts 305°
2026-04-26 20:59 42.91636 -89.15853 4373 ft 134 kts 301°
2026-04-26 20:59 42.92281 -89.16825 4277 ft 142 kts 308°
2026-04-26 20:59 42.92976 -89.17770 4238 ft 143 kts 314°
2026-04-26 21:00 42.93746 -89.18661 4158 ft 145 kts 320°
2026-04-26 21:00 42.94538 -89.19476 4097 ft 141 kts 322°
2026-04-26 21:00 42.95336 -89.20268 3933 ft 143 kts 322°
2026-04-26 21:00 42.96135 -89.21051 3754 ft 146 kts 323°
2026-04-26 21:01 42.96953 -89.21865 3651 ft 143 kts 322°
2026-04-26 21:01 42.97844 -89.22553 3430 ft 152 kts 330°
2026-04-26 21:01 42.98670 -89.23378 3457 ft 143 kts 320°
2026-04-26 21:01 42.99382 -89.24249 3540 ft 132 kts 315°
2026-04-26 21:02 43.00067 -89.25078 3472 ft 131 kts 321°
2026-04-26 21:02 43.00789 -89.25843 3458 ft 132 kts 323°
2026-04-26 21:02 43.01531 -89.26600 3472 ft 135 kts 326°
2026-04-26 21:02 43.02310 -89.27336 3438 ft 139 kts 327°
2026-04-26 21:03 43.03112 -89.28101 3460 ft 140 kts 327°
2026-04-26 21:03 43.03899 -89.28861 3454 ft 138 kts 327°
2026-04-26 21:03 43.04681 -89.29636 3467 ft 140 kts 326°
2026-04-26 21:03 43.05472 -89.30416 3522 ft 141 kts 326°
2026-04-26 21:04 43.06291 -89.31212 3345 ft 144 kts 328°
2026-04-26 21:04 43.07081 -89.31935 3081 ft 131 kts 332°
2026-04-26 21:04 43.07812 -89.32616 2835 ft 125 kts 329°
2026-04-26 21:04 43.08541 -89.33241 2566 ft 122 kts 338°
2026-04-26 21:05 43.09332 -89.33737 2284 ft 125 kts 346°
2026-04-26 21:05 43.10123 -89.34098 2230 ft 120 kts 355°
2026-04-26 21:05 43.10941 -89.34284 2174 ft 116 kts
2026-04-26 21:05 43.11708 -89.34342 2169 ft 106 kts
2026-04-26 21:06 43.12447 -89.34404 2127 ft 106 kts
2026-04-26 21:06 43.13160 -89.34565 2123 ft 103 kts 341°
2026-04-26 21:06 43.13721 -89.35166 2064 ft 106 kts 323°
2026-04-26 21:06 43.14285 -89.35842 1837 ft 110 kts 326°
2026-04-26 21:07 43.14834 -89.36471 1746 ft 96 kts 323°
2026-04-26 21:07 43.15347 -89.37059 1772 ft 97 kts 323°
2026-04-26 21:07 43.15935 -89.37161 1651 ft 82 kts 43°
2026-04-26 21:07 43.16246 -89.36602 1601 ft 76 kts 83°
2026-04-26 21:08 43.16145 -89.35922 1477 ft 76 kts 135°
2026-04-26 21:08 43.15765 -89.35443 1354 ft 73 kts 131°
2026-04-26 21:08 43.15414 -89.34984 1197 ft 66 kts 129°
2026-04-26 21:08 43.15092 -89.34552 1034 ft 66 kts 133°
2026-04-26 21:09 43.14764 -89.34122 883 ft 65 kts 134°
2026-04-26 21:09 43.14479 -89.33754 856 ft 45 kts 135°
2026-04-26 21:09 43.14294 -89.33510 857 ft 31 kts 135°
2026-04-26 21:09 43.14156 -89.33332 858 ft 24 kts 135°
2026-04-26 21:10 43.14052 -89.33191 862 ft 18 kts 122°
2026-04-26 21:10 43.14030 -89.33038 862 ft 9 kts 84°
2026-04-26 21:10 43.14030 -89.33031 862 ft 0 kts 83°
2026-04-26 21:11 43.14031 -89.33022 862 ft 2 kts 94°
2026-04-26 21:11 43.14029 -89.32968 862 ft 9 kts 88°
2026-04-26 21:11 43.14031 -89.32857 863 ft 12 kts 90°
2026-04-26 21:11 43.14039 -89.32763 865 ft 9 kts 77°
2026-04-26 21:12 43.14028 -89.32702 860 ft 0 kts 177°